Time,TemperatureF,DewpointF,PressureIn,WindDirection,WindDirectionDegrees,WindSpeedMPH,WindSpeedGustMPH,Humidity,HourlyPrecipIn,Conditions,Clouds,dailyrainin,SoftwareType,DateUTC
2013-02-23 00:09:00,31.4,29.9,30.04,WNW,288,0.0,0.0,94,0.00,,,0.00,Wunderground v.1.15,2013-02-23 05:09:00,
2013-02-23 00:19:00,31.6,30.1,30.04,WNW,288,0.0,0.0,94,0.00,,,0.00,Wunderground v.1.15,2013-02-23 05:19:00,
2013-02-23 00:29:00,31.7,30.2,30.04,WNW,288,0.0,0.0,94,0.00,,,0.00,Wunderground v.1.15,2013-02-23 05:29:00,
2013-02-23 00:39:00,31.7,30.2,30.04,WNW,288,0.0,0.0,94,0.00,,,0.00,Wunderground v.1.15,2013-02-23 05:39:00,
2013-02-23 00:49:00,31.7,30.2,30.03,WNW,288,0.0,0.0,94,0.00,,,0.00,Wunderground v.1.15,2013-02-23 05:49:00,
2013-02-23 00:59:00,31.9,30.4,30.03,WNW,288,0.0,0.0,94,0.00,,,0.00,Wunderground v.1.15,2013-02-23 05:59:00,
2013-02-23 01:09:00,32.0,30.7,30.03,WNW,288,0.0,0.0,95,0.00,,,0.00,Wunderground v.1.15,2013-02-23 06:09:00,
2013-02-23 01:19:00,32.1,30.6,30.03,SW,234,0.0,0.0,94,0.00,,,0.00,Wunderground v.1.15,2013-02-23 06:19:00,
2013-02-23 01:29:00,32.2,30.7,30.03,SW,234,0.0,0.0,94,0.00,,,0.00,Wunderground v.1.15,2013-02-23 06:29:00,
2013-02-23 01:39:00,32.3,30.8,30.03,SSW,203,1.0,1.0,94,0.00,,,0.00,Wunderground v.1.15,2013-02-23 06:39:00,
2013-02-23 01:49:00,32.5,31.0,30.03,WSW,240,2.0,2.0,94,0.00,,,0.00,Wunderground v.1.15,2013-02-23 06:49:00,
2013-02-23 01:59:00,32.5,30.7,30.03,WSW,240,0.0,0.0,93,0.00,,,0.00,Wunderground v.1.15,2013-02-23 06:59:00,
2013-02-23 02:09:00,32.5,30.7,30.03,WSW,240,0.0,0.0,93,0.00,,,0.00,Wunderground v.1.15,2013-02-23 07:09:00,
2013-02-23 02:19:00,32.6,30.8,30.03,WSW,240,0.0,0.0,93,0.00,,,0.00,Wunderground v.1.15,2013-02-23 07:19:00,
2013-02-23 02:29:00,32.6,30.8,30.03,WSW,240,0.0,0.0,93,0.00,,,0.00,Wunderground v.1.15,2013-02-23 07:29:00,
2013-02-23 02:39:00,32.5,30.4,30.04,WSW,240,0.0,0.0,92,0.00,,,0.00,Wunderground v.1.15,2013-02-23 07:39:00,
2013-02-23 02:49:00,32.3,30.0,30.04,West,265,2.0,3.0,91,0.00,,,0.00,Wunderground v.1.15,2013-02-23 07:49:00,
2013-02-23 02:59:00,32.2,29.6,30.03,West,267,3.0,3.0,90,0.00,,,0.00,Wunderground v.1.15,2013-02-23 07:59:00,
2013-02-23 03:09:00,32.1,29.2,30.03,WSW,248,2.0,3.0,89,0.00,,,0.00,Wunderground v.1.15,2013-02-23 08:09:00,
2013-02-23 03:19:00,32.0,29.1,30.03,West,267,2.0,3.0,89,0.00,,,0.00,Wunderground v.1.15,2013-02-23 08:19:00,
2013-02-23 03:29:00,32.0,29.1,30.03,WSW,254,2.0,2.0,89,0.00,,,0.00,Wunderground v.1.15,2013-02-23 08:29:00,
2013-02-23 03:39:00,31.9,29.0,30.02,WSW,251,1.0,1.0,89,0.00,,,0.00,Wunderground v.1.15,2013-02-23 08:39:00,
2013-02-23 03:49:00,31.9,29.0,30.02,SW,230,3.0,3.0,89,0.00,,,0.00,Wunderground v.1.15,2013-02-23 08:49:00,
2013-02-23 03:59:00,31.7,28.8,30.02,WSW,252,3.0,5.0,89,0.00,,,0.00,Wunderground v.1.15,2013-02-23 08:59:00,
2013-02-23 04:09:00,31.5,28.4,30.02,SW,224,3.0,6.0,88,0.00,,,0.00,Wunderground v.1.15,2013-02-23 09:09:00,
2013-02-23 04:19:00,31.3,27.6,30.02,WSW,252,4.0,4.0,86,0.00,,,0.00,Wunderground v.1.15,2013-02-23 09:19:00,
2013-02-23 04:29:00,31.2,27.2,30.02,West,260,3.0,3.0,85,0.00,,,0.00,Wunderground v.1.15,2013-02-23 09:29:00,
2013-02-23 04:39:00,31.1,27.1,30.02,West,269,4.0,7.0,85,0.00,,,0.00,Wunderground v.1.15,2013-02-23 09:39:00,
2013-02-23 04:49:00,31.0,26.7,30.01,West,269,4.0,7.0,84,0.00,,,0.00,Wunderground v.1.15,2013-02-23 09:49:00,
2013-02-23 04:59:00,30.8,26.5,30.02,WNW,289,4.0,4.0,84,0.00,,,0.00,Wunderground v.1.15,2013-02-23 09:59:00,
2013-02-23 05:09:00,30.6,26.3,30.02,West,263,4.0,4.0,84,0.00,,,0.00,Wunderground v.1.15,2013-02-23 10:09:00,
2013-02-23 05:19:00,30.4,26.4,30.02,WNW,284,3.0,3.0,85,0.00,,,0.00,Wunderground v.1.15,2013-02-23 10:19:00,
2013-02-23 05:29:00,30.3,26.6,30.03,WSW,250,2.0,3.0,86,0.00,,,0.00,Wunderground v.1.15,2013-02-23 10:29:00,
2013-02-23 05:34:00,30.2,26.5,30.03,West,269,2.0,3.0,86,0.00,,,0.00,Wunderground v.1.15,2013-02-23 10:34:00,
2013-02-23 05:49:00,29.8,26.1,30.02,West,278,1.0,2.0,86,0.00,,,0.00,Wunderground v.1.15,2013-02-23 10:49:00,
2013-02-23 05:59:00,29.7,26.0,30.03,West,263,3.0,3.0,86,0.00,,,0.00,Wunderground v.1.15,2013-02-23 10:59:00,
2013-02-23 06:09:00,29.5,25.8,30.03,West,269,2.0,6.0,86,0.00,,,0.00,Wunderground v.1.15,2013-02-23 11:09:00,
2013-02-23 06:19:00,29.4,25.7,30.03,SW,235,3.0,3.0,86,0.00,,,0.00,Wunderground v.1.15,2013-02-23 11:19:00,
2013-02-23 06:29:00,29.3,25.6,30.04,West,267,3.0,3.0,86,0.00,,,0.00,Wunderground v.1.15,2013-02-23 11:29:00,
2013-02-23 06:39:00,29.1,25.2,30.04,West,263,4.0,4.0,85,0.00,,,0.00,Wunderground v.1.15,2013-02-23 11:39:00,
2013-02-23 06:49:00,28.8,24.9,30.05,West,274,4.0,9.0,85,0.00,,,0.00,Wunderground v.1.15,2013-02-23 11:49:00,
2013-02-23 06:59:00,28.7,24.5,30.05,NNW,332,4.0,4.0,84,0.00,,,0.00,Wunderground v.1.15,2013-02-23 11:59:00,
2013-02-23 07:09:00,28.4,24.2,30.05,SW,231,4.0,5.0,84,0.00,,,0.00,Wunderground v.1.15,2013-02-23 12:09:00,
2013-02-23 07:19:00,28.2,24.0,30.05,West,263,4.0,4.0,84,0.00,,,0.00,Wunderground v.1.15,2013-02-23 12:19:00,
2013-02-23 07:29:00,27.9,24.0,30.06,WSW,251,3.0,4.0,85,0.00,,,0.00,Wunderground v.1.15,2013-02-23 12:29:00,
2013-02-23 07:39:00,27.6,24.0,30.05,NW,321,2.0,4.0,86,0.00,,,0.00,Wunderground v.1.15,2013-02-23 12:39:00,
2013-02-23 07:49:00,27.5,23.9,30.05,WNW,286,1.0,1.0,86,0.00,,,0.00,Wunderground v.1.15,2013-02-23 12:49:00,
2013-02-23 07:59:00,27.3,23.9,30.05,WNW,283,0.0,1.0,87,0.00,,,0.00,Wunderground v.1.15,2013-02-23 12:59:00,
2013-02-23 08:09:00,27.6,24.5,30.06,West,280,0.0,0.0,88,0.00,,,0.00,Wunderground v.1.15,2013-02-23 13:09:00,
2013-02-23 08:19:00,28.1,24.7,30.05,WSW,249,1.0,3.0,87,0.00,,,0.00,Wunderground v.1.15,2013-02-23 13:19:00,
2013-02-23 08:29:00,28.5,24.6,30.05,West,267,3.0,3.0,85,0.00,,,0.00,Wunderground v.1.15,2013-02-23 13:29:00,
2013-02-23 08:39:00,28.2,24.3,30.05,WSW,244,3.0,3.0,85,0.00,,,0.00,Wunderground v.1.15,2013-02-23 13:39:00,
2013-02-23 08:49:00,28.2,24.0,30.05,SW,234,3.0,6.0,84,0.00,,,0.00,Wunderground v.1.15,2013-02-23 13:49:00,
2013-02-23 08:59:00,28.3,23.8,30.05,SW,230,3.0,3.0,83,0.00,,,0.00,Wunderground v.1.15,2013-02-23 13:59:00,
2013-02-23 09:09:00,28.6,23.8,30.05,West,273,4.0,4.0,82,0.00,,,0.00,Wunderground v.1.15,2013-02-23 14:09:00,
2013-02-23 09:19:00,28.7,23.3,30.06,SW,232,4.0,4.0,80,0.00,,,0.00,Wunderground v.1.15,2013-02-23 14:19:00,
2013-02-23 09:29:00,28.7,23.0,30.05,SW,233,4.0,5.0,79,0.00,,,0.00,Wunderground v.1.15,2013-02-23 14:29:00,
2013-02-23 09:39:00,28.9,22.6,30.05,WSW,238,4.0,6.0,77,0.00,,,0.00,Wunderground v.1.15,2013-02-23 14:39:00,
2013-02-23 09:49:00,29.1,22.5,30.05,WNW,292,5.0,5.0,76,0.00,,,0.00,Wunderground v.1.15,2013-02-23 14:49:00,
2013-02-23 09:59:00,29.6,22.6,30.04,WNW,283,4.0,5.0,75,0.00,,,0.00,Wunderground v.1.15,2013-02-23 14:59:00,
2013-02-23 10:09:00,29.9,23.6,30.03,West,277,3.0,3.0,77,0.00,,,0.00,Wunderground v.1.15,2013-02-23 15:09:00,
2013-02-23 10:19:00,30.4,23.1,30.03,NNW,330,3.0,3.0,74,0.00,,,0.00,Wunderground v.1.15,2013-02-23 15:19:00,
2013-02-23 10:29:00,30.4,22.8,30.03,WSW,254,3.0,3.0,73,0.00,,,0.00,Wunderground v.1.15,2013-02-23 15:29:00,
2013-02-23 10:39:00,31.0,24.0,30.03,SW,229,4.0,6.0,75,0.00,,,0.00,Wunderground v.1.15,2013-02-23 15:39:00,
2013-02-23 10:49:00,30.8,23.5,30.03,SSW,213,4.0,6.0,74,0.00,,,0.00,Wunderground v.1.15,2013-02-23 15:49:00,
2013-02-23 10:59:00,31.4,23.7,30.03,WSW,238,4.0,4.0,73,0.00,,,0.00,Wunderground v.1.15,2013-02-23 15:59:00,
2013-02-23 11:09:00,31.8,23.8,30.03,WSW,249,3.0,3.0,72,0.00,,,0.00,Wunderground v.1.15,2013-02-23 16:09:00,
2013-02-23 11:19:00,32.4,24.7,30.03,WNW,298,3.0,4.0,73,0.00,,,0.00,Wunderground v.1.15,2013-02-23 16:19:00,
2013-02-23 11:29:00,32.7,25.3,30.03,West,265,4.0,4.0,74,0.00,,,0.00,Wunderground v.1.15,2013-02-23 16:29:00,
2013-02-23 11:39:00,32.8,24.4,30.03,WNW,289,3.0,3.0,71,0.00,,,0.00,Wunderground v.1.15,2013-02-23 16:39:00,
2013-02-23 11:49:00,33.0,25.0,30.02,WSW,249,4.0,4.0,72,0.00,,,0.00,Wunderground v.1.15,2013-02-23 16:49:00,
2013-02-23 11:59:00,33.5,24.8,30.02,WSW,253,4.0,4.0,70,0.00,,,0.00,Wunderground v.1.15,2013-02-23 16:59:00,
2013-02-23 12:09:00,34.1,26.7,30.02,SW,231,4.0,6.0,74,0.00,,,0.00,Wunderground v.1.15,2013-02-23 17:09:00,
2013-02-23 12:19:00,34.3,24.8,30.02,WSW,251,6.0,7.0,68,0.00,,,0.00,Wunderground v.1.15,2013-02-23 17:19:00,
2013-02-23 12:29:00,34.3,25.9,30.03,SSW,207,5.0,5.0,71,0.00,,,0.00,Wunderground v.1.15,2013-02-23 17:29:00,
2013-02-23 12:39:00,34.7,26.6,30.02,West,261,4.0,7.0,72,0.00,,,0.00,Wunderground v.1.15,2013-02-23 17:39:00,
2013-02-23 12:49:00,35.2,25.7,30.02,WSW,244,6.0,6.0,68,0.00,,,0.00,Wunderground v.1.15,2013-02-23 17:49:00,
2013-02-23 12:59:00,35.5,25.3,30.01,WNW,297,4.0,5.0,66,0.00,,,0.00,Wunderground v.1.15,2013-02-23 17:59:00,
2013-02-23 13:09:00,35.8,25.5,30.01,WSW,252,4.0,4.0,66,0.00,,,0.00,Wunderground v.1.15,2013-02-23 18:09:00,
2013-02-23 13:19:00,36.1,25.8,30.01,WSW,248,5.0,5.0,66,0.00,,,0.00,Wunderground v.1.15,2013-02-23 18:19:00,
2013-02-23 13:29:00,36.4,26.1,30.00,NW,321,5.0,5.0,66,0.00,,,0.00,Wunderground v.1.15,2013-02-23 18:29:00,
2013-02-23 13:36:00,36.6,26.7,30.00,NW,313,4.0,5.0,67,0.00,,,0.00,Wunderground v.1.15,2013-02-23 18:36:00,
2013-02-23 13:50:00,37.0,25.6,29.98,NW,309,4.0,4.0,63,0.00,,,0.01,Wunderground v.1.15,2013-02-23 18:50:00,
2013-02-23 14:00:00,37.2,25.8,29.99,West,275,2.0,6.0,63,0.00,,,0.01,Wunderground v.1.15,2013-02-23 19:00:00,
2013-02-23 14:10:00,37.1,26.0,29.98,WNW,295,5.0,5.0,64,0.00,,,0.01,Wunderground v.1.15,2013-02-23 19:10:00,
2013-02-23 14:21:00,37.3,25.8,29.98,West,267,3.0,5.0,63,0.00,,,0.01,Wunderground v.1.15,2013-02-23 19:21:00,
2013-02-23 14:30:00,37.8,25.9,29.98,WNW,300,4.0,5.0,62,0.00,,,0.01,Wunderground v.1.15,2013-02-23 19:30:00,
2013-02-23 14:40:00,38.1,26.2,29.98,West,281,4.0,7.0,62,0.00,,,0.01,Wunderground v.1.15,2013-02-23 19:40:00,
2013-02-23 14:50:00,38.4,27.7,29.98,West,272,4.0,4.0,65,0.00,,,0.01,Wunderground v.1.15,2013-02-23 19:50:00,
2013-02-23 15:01:00,38.6,25.9,29.98,WNW,290,3.0,3.0,60,0.00,,,0.01,Wunderground v.1.15,2013-02-23 20:01:00,
2013-02-23 15:11:00,38.8,26.9,29.99,NW,316,5.0,7.0,62,0.00,,,0.01,Wunderground v.1.15,2013-02-23 20:11:00,
2013-02-23 15:21:00,38.6,26.7,29.99,West,264,5.0,5.0,62,0.00,,,0.01,Wunderground v.1.15,2013-02-23 20:21:00,
2013-02-23 15:30:00,38.6,26.7,29.98,WSW,245,4.0,7.0,62,0.00,,,0.01,Wunderground v.1.15,2013-02-23 20:30:00,
2013-02-23 15:41:00,38.5,26.2,29.98,West,269,5.0,6.0,61,0.00,,,0.01,Wunderground v.1.15,2013-02-23 20:41:00,
2013-02-23 15:51:00,38.4,26.5,29.98,NNW,328,5.0,6.0,62,0.00,,,0.01,Wunderground v.1.15,2013-02-23 20:51:00,
2013-02-23 16:01:00,38.6,26.7,29.98,SW,236,5.0,5.0,62,0.00,,,0.01,Wunderground v.1.15,2013-02-23 21:01:00,
2013-02-23 16:11:00,38.8,26.9,29.98,West,259,4.0,4.0,62,0.00,,,0.01,Wunderground v.1.15,2013-02-23 21:11:00,
2013-02-23 16:21:00,38.8,26.9,29.98,WSW,258,4.0,4.0,62,0.00,,,0.01,Wunderground v.1.15,2013-02-23 21:21:00,
2013-02-23 16:31:00,38.7,26.4,29.98,West,277,3.0,3.0,61,0.00,,,0.01,Wunderground v.1.15,2013-02-23 21:31:00,
2013-02-23 16:41:00,38.8,26.5,29.98,WNW,282,3.0,5.0,61,0.00,,,0.01,Wunderground v.1.15,2013-02-23 21:41:00,
2013-02-23 16:51:00,38.5,26.6,29.97,SW,229,4.0,4.0,62,0.00,,,0.01,Wunderground v.1.15,2013-02-23 21:51:00,
2013-02-23 17:01:00,38.6,25.5,29.97,WSW,252,3.0,3.0,59,0.00,,,0.01,Wunderground v.1.15,2013-02-23 22:01:00,
2013-02-23 17:11:00,38.6,26.7,29.98,West,265,2.0,2.0,62,0.00,,,0.01,Wunderground v.1.15,2013-02-23 22:11:00,
2013-02-23 17:21:00,38.3,25.6,29.98,North,355,3.0,5.0,60,0.00,,,0.01,Wunderground v.1.15,2013-02-23 22:21:00,
2013-02-23 17:31:00,38.2,25.9,29.98,WSW,258,2.0,2.0,61,0.00,,,0.01,Wunderground v.1.15,2013-02-23 22:31:00,
2013-02-23 17:41:00,38.0,25.7,29.98,WSW,244,2.0,4.0,61,0.00,,,0.01,Wunderground v.1.15,2013-02-23 22:41:00,
2013-02-23 17:51:00,37.6,25.4,29.98,West,272,2.0,3.0,61,0.00,,,0.01,Wunderground v.1.15,2013-02-23 22:51:00,
2013-02-23 18:11:00,36.3,25.7,29.99,West,272,0.0,0.0,65,0.00,,,0.01,Wunderground v.1.15,2013-02-23 23:11:00,
2013-02-23 18:21:00,35.6,25.7,29.99,West,272,0.0,0.0,67,0.00,,,0.01,Wunderground v.1.15,2013-02-23 23:21:00,
2013-02-23 18:31:00,34.7,25.2,29.98,West,272,0.0,0.0,68,0.00,,,0.01,Wunderground v.1.15,2013-02-23 23:31:00,
2013-02-23 18:41:00,34.0,24.9,29.98,West,272,0.0,0.0,69,0.00,,,0.01,Wunderground v.1.15,2013-02-23 23:41:00,
2013-02-23 18:51:00,33.6,24.9,29.99,West,272,0.0,0.0,70,0.00,,,0.01,Wunderground v.1.15,2013-02-23 23:51:00,
2013-02-23 19:01:00,33.4,25.0,29.99,West,272,0.0,0.0,71,0.00,,,0.01,Wunderground v.1.15,2013-02-24 00:01:00,
2013-02-23 19:11:00,33.0,25.0,29.99,West,272,0.0,0.0,72,0.00,,,0.01,Wunderground v.1.15,2013-02-24 00:11:00,
2013-02-23 19:21:00,32.5,24.8,29.99,West,272,0.0,0.0,73,0.00,,,0.01,Wunderground v.1.15,2013-02-24 00:21:00,
2013-02-23 19:31:00,32.3,24.9,29.99,West,272,0.0,0.0,74,0.00,,,0.01,Wunderground v.1.15,2013-02-24 00:31:00,
2013-02-23 19:41:00,32.0,25.0,29.99,West,272,0.0,1.0,75,0.00,,,0.01,Wunderground v.1.15,2013-02-24 00:41:00,
2013-02-23 19:51:00,32.2,24.8,29.99,West,272,0.0,2.0,74,0.00,,,0.01,Wunderground v.1.15,2013-02-24 00:51:00,
2013-02-23 20:01:00,32.3,24.9,29.99,West,272,1.0,1.0,74,0.00,,,0.01,Wunderground v.1.15,2013-02-24 01:01:00,
2013-02-23 20:11:00,32.0,24.6,29.99,West,272,0.0,0.0,74,0.00,,,0.01,Wunderground v.1.15,2013-02-24 01:11:00,
2013-02-23 20:21:00,31.8,24.8,29.99,West,272,0.0,0.0,75,0.00,,,0.01,Wunderground v.1.15,2013-02-24 01:21:00,
2013-02-23 20:26:00,31.7,24.7,29.99,West,272,0.0,0.0,75,0.00,,,0.01,Wunderground v.1.15,2013-02-24 01:26:00,
2013-02-23 20:31:00,31.5,24.5,29.99,West,272,0.0,0.0,75,0.00,,,0.01,Wunderground v.1.15,2013-02-24 01:31:00,
2013-02-23 20:41:00,31.1,24.4,29.99,West,272,0.0,0.0,76,0.00,,,0.01,Wunderground v.1.15,2013-02-24 01:41:00,
2013-02-23 20:52:00,30.8,24.4,29.99,West,272,0.0,0.0,77,0.00,,,0.01,Wunderground v.1.15,2013-02-24 01:52:00,
2013-02-23 21:01:00,30.7,24.7,30.00,West,272,0.0,0.0,78,0.00,,,0.01,Wunderground v.1.15,2013-02-24 02:01:00,
2013-02-23 21:22:00,29.9,24.2,30.00,West,272,0.0,0.0,79,0.00,,,0.01,Wunderground v.1.15,2013-02-24 02:22:00,
2013-02-23 21:32:00,29.6,24.5,29.99,West,272,0.0,0.0,81,0.00,,,0.01,Wunderground v.1.15,2013-02-24 02:32:00,
2013-02-23 21:42:00,29.3,24.2,30.00,West,272,0.0,0.0,81,0.00,,,0.01,Wunderground v.1.15,2013-02-24 02:42:00,
2013-02-23 21:47:00,29.2,24.4,29.99,West,272,0.0,0.0,82,0.00,,,0.01,Wunderground v.1.15,2013-02-24 02:47:00,
2013-02-23 22:02:00,29.0,24.2,30.00,West,272,0.0,0.0,82,0.00,,,0.01,Wunderground v.1.15,2013-02-24 03:02:00,
2013-02-23 22:12:00,29.3,24.5,30.00,West,272,0.0,0.0,82,0.00,,,0.01,Wunderground v.1.15,2013-02-24 03:12:00,
2013-02-23 22:22:00,29.8,24.7,30.00,West,272,1.0,1.0,81,0.00,,,0.01,Wunderground v.1.15,2013-02-24 03:22:00,
2013-02-23 22:27:00,30.1,25.0,30.00,West,260,1.0,1.0,81,0.00,,,0.01,Wunderground v.1.15,2013-02-24 03:27:00,
2013-02-23 22:42:00,30.2,24.8,30.00,West,265,1.0,1.0,80,0.00,,,0.01,Wunderground v.1.15,2013-02-24 03:42:00,
2013-02-23 22:52:00,30.3,24.9,30.01,West,281,1.0,3.0,80,0.00,,,0.01,Wunderground v.1.15,2013-02-24 03:52:00,
2013-02-23 23:02:00,30.3,24.9,30.01,WNW,299,1.0,1.0,80,0.00,,,0.01,Wunderground v.1.15,2013-02-24 04:02:00,
2013-02-23 23:12:00,30.0,24.6,30.00,West,262,1.0,1.0,80,0.00,,,0.01,Wunderground v.1.15,2013-02-24 04:12:00,
2013-02-23 23:22:00,29.9,24.8,30.00,West,263,1.0,3.0,81,0.00,,,0.01,Wunderground v.1.15,2013-02-24 04:22:00,
2013-02-23 23:32:00,29.8,24.7,30.00,NNW,338,2.0,2.0,81,0.00,,,0.01,Wunderground v.1.15,2013-02-24 04:32:00,
2013-02-23 23:42:00,29.7,24.9,30.00,NNW,331,1.0,1.0,82,0.00,,,0.01,Wunderground v.1.15,2013-02-24 04:42:00,
2013-02-23 23:52:00,29.4,24.6,30.00,West,277,1.0,1.0,82,0.00,,,0.01,Wunderground v.1.15,2013-02-24 04:52:00,